sensor_id;sensor_type;location;lat;lon;timestamp;pressure;altitude;pressure_sealevel;temperature;humidity
77192;BME280;66172;48.526;8.078;2023-07-02T00:00:59;99038.91;;;18.94;78.17
77192;BME280;66172;48.526;8.078;2023-07-02T00:03:25;99040.50;;;18.91;78.20
77192;BME280;66172;48.526;8.078;2023-07-02T00:05:51;99037.38;;;18.86;78.41
77192;BME280;66172;48.526;8.078;2023-07-02T00:08:21;99038.97;;;18.83;78.97
77192;BME280;66172;48.526;8.078;2023-07-02T00:10:47;99040.97;;;18.79;78.77
77192;BME280;66172;48.526;8.078;2023-07-02T00:13:14;99033.50;;;18.80;79.11
77192;BME280;66172;48.526;8.078;2023-07-02T00:15:40;99035.09;;;18.77;79.48
77192;BME280;66172;48.526;8.078;2023-07-02T00:18:06;99046.09;;;18.81;79.52
77192;BME280;66172;48.526;8.078;2023-07-02T00:20:33;99043.34;;;18.77;79.47
77192;BME280;66172;48.526;8.078;2023-07-02T00:23:04;99046.91;;;18.74;79.01
77192;BME280;66172;48.526;8.078;2023-07-02T00:25:30;99049.66;;;18.74;79.69
77192;BME280;66172;48.526;8.078;2023-07-02T00:27:55;99040.19;;;18.79;79.60
77192;BME280;66172;48.526;8.078;2023-07-02T00:30:21;99042.91;;;18.82;79.69
77192;BME280;66172;48.526;8.078;2023-07-02T00:32:47;99046.09;;;18.81;79.52
77192;BME280;66172;48.526;8.078;2023-07-02T00:35:13;99043.72;;;18.79;80.07
77192;BME280;66172;48.526;8.078;2023-07-02T00:37:39;99046.09;;;18.77;79.98
77192;BME280;66172;48.526;8.078;2023-07-02T00:40:05;99033.53;;;18.73;80.18
77192;BME280;66172;48.526;8.078;2023-07-02T00:42:31;99034.72;;;18.72;80.17
77192;BME280;66172;48.526;8.078;2023-07-02T00:44:57;99035.13;;;18.70;80.17
77192;BME280;66172;48.526;8.078;2023-07-02T00:47:30;99035.53;;;18.69;80.73
77192;BME280;66172;48.526;8.078;2023-07-02T00:49:56;99041.81;;;18.69;80.83
77192;BME280;66172;48.526;8.078;2023-07-02T00:52:22;99033.56;;;18.69;80.73
77192;BME280;66172;48.526;8.078;2023-07-02T00:54:49;99040.63;;;18.70;80.19
77192;BME280;66172;48.526;8.078;2023-07-02T00:57:15;99037.47;;;18.72;80.37
77192;BME280;66172;48.526;8.078;2023-07-02T00:59:41;99040.25;;;18.65;80.51
77192;BME280;66172;48.526;8.078;2023-07-02T01:02:07;99041.09;;;18.58;80.82
77192;BME280;66172;48.526;8.078;2023-07-02T01:04:33;99039.53;;;18.57;80.70
77192;BME280;66172;48.526;8.078;2023-07-02T01:06:58;99045.03;;;18.61;80.94
77192;BME280;66172;48.526;8.078;2023-07-02T01:09:25;99037.16;;;18.56;80.87
77192;BME280;66172;48.526;8.078;2023-07-02T01:11:56;99029.72;;;18.53;81.75
77192;BME280;66172;48.526;8.078;2023-07-02T01:14:29;99036.03;;;18.46;82.15
77192;BME280;66172;48.526;8.078;2023-07-02T01:16:57;99037.63;;;18.43;82.34
77192;BME280;66172;48.526;8.078;2023-07-02T01:19:49;99041.19;;;18.30;83.21
77192;BME280;66172;48.526;8.078;2023-07-02T01:22:24;99037.25;;;18.34;83.23
77192;BME280;66172;48.526;8.078;2023-07-02T01:24:51;99039.19;;;18.37;83.01
77192;BME280;66172;48.526;8.078;2023-07-02T01:27:17;99033.34;;;18.28;83.39
77192;BME280;66172;48.526;8.078;2023-07-02T01:29:43;99028.25;;;18.20;83.80
77192;BME280;66172;48.526;8.078;2023-07-02T01:32:13;99025.16;;;18.07;84.56
77192;BME280;66172;48.526;8.078;2023-07-02T01:34:39;99022.03;;;17.98;84.73
77192;BME280;66172;48.526;8.078;2023-07-02T01:37:05;99025.63;;;17.84;85.29
77192;BME280;66172;48.526;8.078;2023-07-02T01:39:31;99033.50;;;17.79;86.46
77192;BME280;66172;48.526;8.078;2023-07-02T01:42:14;99020.91;;;17.78;86.66
77192;BME280;66172;48.526;8.078;2023-07-02T01:44:46;99036.63;;;17.74;86.58
77192;BME280;66172;48.526;8.078;2023-07-02T01:47:13;99042.13;;;17.84;86.80
77192;BME280;66172;48.526;8.078;2023-07-02T01:49:39;99057.81;;;17.94;86.65
77192;BME280;66172;48.526;8.078;2023-07-02T01:52:05;99062.91;;;18.00;88.85
77192;BME280;66172;48.526;8.078;2023-07-02T01:54:32;99064.91;;;17.92;87.27
77192;BME280;66172;48.526;8.078;2023-07-02T01:56:58;99075.13;;;17.81;87.48
77192;BME280;66172;48.526;8.078;2023-07-02T01:59:25;99081.06;;;17.76;87.73
77192;BME280;66172;48.526;8.078;2023-07-02T02:01:51;99092.06;;;17.83;87.62
77192;BME280;66172;48.526;8.078;2023-07-02T02:04:18;99088.91;;;17.70;87.96
77192;BME280;66172;48.526;8.078;2023-07-02T02:06:44;99087.34;;;17.76;87.97
77192;BME280;66172;48.526;8.078;2023-07-02T02:09:10;99089.69;;;17.74;88.55
77192;BME280;66172;48.526;8.078;2023-07-02T02:11:43;99090.47;;;17.64;88.08
77192;BME280;66172;48.526;8.078;2023-07-02T02:14:09;99092.03;;;17.55;89.20
77192;BME280;66172;48.526;8.078;2023-07-02T02:16:35;99107.00;;;17.61;88.85
77192;BME280;66172;48.526;8.078;2023-07-02T02:19:01;99112.88;;;17.52;89.39
77192;BME280;66172;48.526;8.078;2023-07-02T02:21:28;99112.88;;;17.45;88.51
77192;BME280;66172;48.526;8.078;2023-07-02T02:23:54;99107.72;;;17.29;87.08
77192;BME280;66172;48.526;8.078;2023-07-02T02:26:21;99110.44;;;17.05;86.70
77192;BME280;66172;48.526;8.078;2023-07-02T02:28:48;99118.25;;;16.88;86.19
77192;BME280;66172;48.526;8.078;2023-07-02T02:31:15;99122.50;;;16.68;85.86
77192;BME280;66172;48.526;8.078;2023-07-02T02:33:41;99121.34;;;16.73;86.01
77192;BME280;66172;48.526;8.078;2023-07-02T02:36:07;99132.66;;;16.64;86.15
77192;BME280;66172;48.526;8.078;2023-07-02T02:38:33;99143.25;;;16.62;86.06
77192;BME280;66172;48.526;8.078;2023-07-02T02:41:00;99138.94;;;16.65;86.42
77192;BME280;66172;48.526;8.078;2023-07-02T02:43:27;99143.28;;;16.69;86.82
77192;BME280;66172;48.526;8.078;2023-07-02T02:45:53;99136.66;;;16.77;87.06
77192;BME280;66172;48.526;8.078;2023-07-02T02:48:19;99139.81;;;16.86;87.63
77192;BME280;66172;48.526;8.078;2023-07-02T02:50:45;99148.47;;;16.88;86.37
77192;BME280;66172;48.526;8.078;2023-07-02T02:53:11;99148.88;;;16.94;87.23
77192;BME280;66172;48.526;8.078;2023-07-02T02:55:37;99144.97;;;16.98;86.83
77192;BME280;66172;48.526;8.078;2023-07-02T02:58:03;99146.16;;;17.05;85.70
77192;BME280;66172;48.526;8.078;2023-07-02T03:00:29;99146.56;;;17.10;86.78
77192;BME280;66172;48.526;8.078;2023-07-02T03:02:55;99148.13;;;17.11;85.41
77192;BME280;66172;48.526;8.078;2023-07-02T03:05:22;99146.56;;;17.14;84.13
77192;BME280;66172;48.526;8.078;2023-07-02T03:07:50;99152.06;;;17.17;84.43
77192;BME280;66172;48.526;8.078;2023-07-02T03:10:16;99150.53;;;17.23;83.19
77192;BME280;66172;48.526;8.078;2023-07-02T03:12:41;99142.63;;;17.08;84.39
77192;BME280;66172;48.526;8.078;2023-07-02T03:15:08;99153.13;;;16.77;85.58
77192;BME280;66172;48.526;8.078;2023-07-02T03:17:35;99143.72;;;16.82;82.74
77192;BME280;66172;48.526;8.078;2023-07-02T03:20:02;99140.63;;;16.87;83.62
77192;BME280;66172;48.526;8.078;2023-07-02T03:22:30;99142.22;;;16.95;83.85
77192;BME280;66172;48.526;8.078;2023-07-02T03:24:56;99144.97;;;16.98;83.03
77192;BME280;66172;48.526;8.078;2023-07-02T03:27:22;99147.28;;;16.93;83.82
77192;BME280;66172;48.526;8.078;2023-07-02T03:29:48;99140.94;;;16.75;85.12
77192;BME280;66172;48.526;8.078;2023-07-02T03:32:14;99147.06;;;16.47;87.05
77192;BME280;66172;48.526;8.078;2023-07-02T03:34:40;99154.47;;;16.32;87.84
77192;BME280;66172;48.526;8.078;2023-07-02T03:37:07;99150.50;;;16.30;87.45
77192;BME280;66172;48.526;8.078;2023-07-02T03:39:34;99150.47;;;16.23;87.17
77192;BME280;66172;48.526;8.078;2023-07-02T03:42:00;99147.69;;;16.16;87.20
77192;BME280;66172;48.526;8.078;2023-07-02T03:44:26;99148.88;;;16.15;88.14
77192;BME280;66172;48.526;8.078;2023-07-02T03:46:52;99145.75;;;16.20;88.70
77192;BME280;66172;48.526;8.078;2023-07-02T03:49:18;99158.72;;;16.26;89.02
77192;BME280;66172;48.526;8.078;2023-07-02T03:51:44;99168.53;;;16.27;87.68
77192;BME280;66172;48.526;8.078;2023-07-02T03:54:09;99175.59;;;16.25;88.58
77192;BME280;66172;48.526;8.078;2023-07-02T03:56:35;99185.00;;;16.27;88.21
77192;BME280;66172;48.526;8.078;2023-07-02T03:59:01;99174.69;;;16.07;88.99
77192;BME280;66172;48.526;8.078;2023-07-02T04:01:27;99188.72;;;15.98;90.19
77192;BME280;66172;48.526;8.078;2023-07-02T04:03:54;99194.63;;;16.00;90.72
77192;BME280;66172;48.526;8.078;2023-07-02T04:06:20;99188.69;;;15.94;91.09
77192;BME280;66172;48.526;8.078;2023-07-02T04:08:46;99195.66;;;15.85;90.64
77192;BME280;66172;48.526;8.078;2023-07-02T04:11:12;99197.59;;;15.81;91.33
77192;BME280;66172;48.526;8.078;2023-07-02T04:13:38;99204.19;;;15.76;91.99
77192;BME280;66172;48.526;8.078;2023-07-02T04:16:05;99210.06;;;15.75;91.36
77192;BME280;66172;48.526;8.078;2023-07-02T04:18:31;99205.53;;;15.93;90.59
77192;BME280;66172;48.526;8.078;2023-07-02T04:20:57;99212.75;;;16.19;89.19
77192;BME280;66172;48.526;8.078;2023-07-02T04:23:24;99204.56;;;16.22;88.98
77192;BME280;66172;48.526;8.078;2023-07-02T04:25:50;99202.28;;;16.31;87.63
77192;BME280;66172;48.526;8.078;2023-07-02T04:28:16;99208.53;;;16.28;88.04
77192;BME280;66172;48.526;8.078;2023-07-02T04:30:42;99221.13;;;16.40;87.80
77192;BME280;66172;48.526;8.078;2023-07-02T04:33:08;99214.47;;;16.37;88.38
77192;BME280;66172;48.526;8.078;2023-07-02T04:35:34;99209.84;;;16.48;87.51
77192;BME280;66172;48.526;8.078;2023-07-02T04:38:01;99217.69;;;16.46;87.17
77192;BME280;66172;48.526;8.078;2023-07-02T04:40:27;99215.34;;;16.52;87.31
77192;BME280;66172;48.526;8.078;2023-07-02T04:42:53;99209.13;;;16.59;86.45
77192;BME280;66172;48.526;8.078;2023-07-02T04:45:24;99220.56;;;16.13;89.54
77192;BME280;66172;48.526;8.078;2023-07-02T04:47:51;99231.56;;;16.17;90.04
77192;BME280;66172;48.526;8.078;2023-07-02T04:50:17;99224.44;;;16.09;90.36
77192;BME280;66172;48.526;8.078;2023-07-02T04:52:44;99222.00;;;15.93;90.97
77192;BME280;66172;48.526;8.078;2023-07-02T04:55:10;99218.50;;;15.99;91.20
77192;BME280;66172;48.526;8.078;2023-07-02T04:57:37;99229.56;;;16.10;90.84
77192;BME280;66172;48.526;8.078;2023-07-02T05:00:03;99224.88;;;16.11;90.69
77192;BME280;66172;48.526;8.078;2023-07-02T05:02:31;99231.94;;;16.15;90.40
77192;BME280;66172;48.526;8.078;2023-07-02T05:04:57;99235.31;;;15.94;90.71
77192;BME280;66172;48.526;8.078;2023-07-02T05:07:23;99230.97;;;15.90;91.67
77192;BME280;66172;48.526;8.078;2023-07-02T05:09:49;99239.19;;;15.86;92.21
77192;BME280;66172;48.526;8.078;2023-07-02T05:12:17;99244.72;;;15.93;92.18
77192;BME280;66172;48.526;8.078;2023-07-02T05:14:44;99245.91;;;15.96;92.37
77192;BME280;66172;48.526;8.078;2023-07-02T05:17:10;99251.97;;;16.19;91.04
77192;BME280;66172;48.526;8.078;2023-07-02T05:19:35;99257.09;;;16.21;90.28
77192;BME280;66172;48.526;8.078;2023-07-02T05:22:01;99249.94;;;16.09;91.61
77192;BME280;66172;48.526;8.078;2023-07-02T05:24:27;99251.16;;;16.15;90.77
77192;BME280;66172;48.526;8.078;2023-07-02T05:26:53;99266.13;;;16.25;88.76
77192;BME280;66172;48.526;8.078;2023-07-02T05:29:19;99261.53;;;16.36;88.92
77192;BME280;66172;48.526;8.078;2023-07-02T05:31:45;99266.75;;;16.55;88.01
77192;BME280;66172;48.526;8.078;2023-07-02T05:34:11;99267.06;;;16.43;88.38
77192;BME280;66172;48.526;8.078;2023-07-02T05:36:37;99266.63;;;16.37;88.71
77192;BME280;66172;48.526;8.078;2023-07-02T05:39:03;99255.66;;;16.41;88.55
77192;BME280;66172;48.526;8.078;2023-07-02T05:41:29;99253.00;;;16.52;87.46
77192;BME280;66172;48.526;8.078;2023-07-02T05:44:00;99251.69;;;16.96;85.67
77192;BME280;66172;48.526;8.078;2023-07-02T05:46:26;99248.59;;;17.02;84.87
77192;BME280;66172;48.526;8.078;2023-07-02T05:48:52;99255.78;;;17.31;83.91
77192;BME280;66172;48.526;8.078;2023-07-02T05:51:21;99255.81;;;17.45;83.00
77192;BME280;66172;48.526;8.078;2023-07-02T05:53:50;99266.34;;;17.29;82.70
77192;BME280;66172;48.526;8.078;2023-07-02T05:56:17;99258.44;;;17.06;84.30
77192;BME280;66172;48.526;8.078;2023-07-02T05:58:43;99260.31;;;16.91;84.66
77192;BME280;66172;48.526;8.078;2023-07-02T06:01:08;99256.81;;;16.98;83.72
77192;BME280;66172;48.526;8.078;2023-07-02T06:03:34;99268.97;;;16.97;83.98
77192;BME280;66172;48.526;8.078;2023-07-02T06:06:00;99274.22;;;17.30;83.19
77192;BME280;66172;48.526;8.078;2023-07-02T06:08:26;99271.44;;;17.23;82.52
77192;BME280;66172;48.526;8.078;2023-07-02T06:10:52;99283.53;;;17.05;82.16
77192;BME280;66172;48.526;8.078;2023-07-02T06:13:18;99281.19;;;17.10;82.76
77192;BME280;66172;48.526;8.078;2023-07-02T06:15:44;99281.28;;;17.31;82.14
77192;BME280;66172;48.526;8.078;2023-07-02T06:18:10;99278.22;;;17.51;81.36
77192;BME280;66172;48.526;8.078;2023-07-02T06:20:36;99283.41;;;17.91;78.91
77192;BME280;66172;48.526;8.078;2023-07-02T06:23:02;99285.00;;;17.95;77.92
77192;BME280;66172;48.526;8.078;2023-07-02T06:25:28;99292.84;;;17.72;79.64
77192;BME280;66172;48.526;8.078;2023-07-02T06:27:54;99288.84;;;17.59;79.49
77192;BME280;66172;48.526;8.078;2023-07-02T06:30:26;99290.47;;;17.71;79.90
77192;BME280;66172;48.526;8.078;2023-07-02T06:32:53;99291.28;;;17.92;79.52
77192;BME280;66172;48.526;8.078;2023-07-02T06:35:19;99301.53;;;17.99;78.31
77192;BME280;66172;48.526;8.078;2023-07-02T06:37:45;99301.88;;;17.69;79.40
77192;BME280;66172;48.526;8.078;2023-07-02T06:40:11;99296.78;;;17.92;79.18
77192;BME280;66172;48.526;8.078;2023-07-02T06:42:37;99297.19;;;18.12;78.22
77192;BME280;66172;48.526;8.078;2023-07-02T06:45:04;99302.31;;;18.00;78.25
77192;BME280;66172;48.526;8.078;2023-07-02T06:47:30;99306.66;;;18.01;77.62
77192;BME280;66172;48.526;8.078;2023-07-02T06:49:56;99297.22;;;18.30;77.28
77192;BME280;66172;48.526;8.078;2023-07-02T06:52:22;99309.41;;;18.36;75.88
77192;BME280;66172;48.526;8.078;2023-07-02T06:54:48;99308.66;;;18.57;75.75
77192;BME280;66172;48.526;8.078;2023-07-02T06:57:14;99293.59;;;19.04;73.80
77192;BME280;66172;48.526;8.078;2023-07-02T06:59:40;99303.44;;;20.50;67.68
77192;BME280;66172;48.526;8.078;2023-07-02T07:02:06;99295.84;;;21.93;63.59
77192;BME280;66172;48.526;8.078;2023-07-02T07:04:32;99311.41;;;22.83;60.36
77192;BME280;66172;48.526;8.078;2023-07-02T07:07:00;99298.66;;;23.49;56.90
77192;BME280;66172;48.526;8.078;2023-07-02T07:09:29;99310.13;;;22.88;56.78
77192;BME280;66172;48.526;8.078;2023-07-02T07:11:56;99305.59;;;22.05;60.43
77192;BME280;66172;48.526;8.078;2023-07-02T07:14:22;99309.53;;;21.09;61.96
77192;BME280;66172;48.526;8.078;2023-07-02T07:16:48;99313.81;;;20.76;62.78
77192;BME280;66172;48.526;8.078;2023-07-02T07:19:14;99318.06;;;21.25;61.26
77192;BME280;66172;48.526;8.078;2023-07-02T07:21:40;99304.03;;;21.43;60.92
77192;BME280;66172;48.526;8.078;2023-07-02T07:24:06;99296.38;;;21.54;61.44
77192;BME280;66172;48.526;8.078;2023-07-02T07:26:32;99292.09;;;21.50;62.03
77192;BME280;66172;48.526;8.078;2023-07-02T07:28:58;99295.22;;;21.52;61.44
77192;BME280;66172;48.526;8.078;2023-07-02T07:31:24;99294.44;;;23.21;57.46
77192;BME280;66172;48.526;8.078;2023-07-02T07:33:50;99298.44;;;25.21;52.15
77192;BME280;66172;48.526;8.078;2023-07-02T07:36:16;99295.47;;;26.32;50.01
77192;BME280;66172;48.526;8.078;2023-07-02T07:38:45;99299.50;;;27.56;45.69
77192;BME280;66172;48.526;8.078;2023-07-02T07:41:11;99296.50;;;27.72;44.23
77192;BME280;66172;48.526;8.078;2023-07-02T07:43:37;99297.03;;;27.15;44.46
77192;BME280;66172;48.526;8.078;2023-07-02T07:46:03;99288.22;;;26.10;46.62
77192;BME280;66172;48.526;8.078;2023-07-02T07:48:29;99300.78;;;25.76;45.85
77192;BME280;66172;48.526;8.078;2023-07-02T07:50:55;99297.44;;;25.56;47.54
77192;BME280;66172;48.526;8.078;2023-07-02T07:53:20;99291.06;;;24.69;47.47
77192;BME280;66172;48.526;8.078;2023-07-02T07:55:46;99301.78;;;23.70;49.95
77192;BME280;66172;48.526;8.078;2023-07-02T07:58:12;99300.22;;;22.67;53.19
77192;BME280;66172;48.526;8.078;2023-07-02T08:00:38;99302.53;;;21.96;54.23
77192;BME280;66172;48.526;8.078;2023-07-02T08:03:04;99293.38;;;21.72;55.67
77192;BME280;66172;48.526;8.078;2023-07-02T08:05:30;99297.66;;;23.39;52.90
77192;BME280;66172;48.526;8.078;2023-07-02T08:07:56;99291.25;;;25.36;47.54
77192;BME280;66172;48.526;8.078;2023-07-02T08:10:23;99284.03;;;27.21;43.35
77192;BME280;66172;48.526;8.078;2023-07-02T08:12:51;99288.13;;;28.70;39.93
77192;BME280;66172;48.526;8.078;2023-07-02T08:15:18;99275.66;;;29.95;36.39
77192;BME280;66172;48.526;8.078;2023-07-02T08:17:44;99288.16;;;29.94;36.83
77192;BME280;66172;48.526;8.078;2023-07-02T08:20:10;99289.88;;;30.57;34.87
77192;BME280;66172;48.526;8.078;2023-07-02T08:22:39;99294.28;;;30.49;33.63
77192;BME280;66172;48.526;8.078;2023-07-02T08:25:06;99285.38;;;30.75;33.58
77192;BME280;66172;48.526;8.078;2023-07-02T08:27:32;99295.75;;;30.83;32.12
77192;BME280;66172;48.526;8.078;2023-07-02T08:29:58;99288.56;;;31.06;30.37
77192;BME280;66172;48.526;8.078;2023-07-02T08:32:24;99293.41;;;30.01;31.99
77192;BME280;66172;48.526;8.078;2023-07-02T08:34:50;99295.78;;;30.27;31.53
77192;BME280;66172;48.526;8.078;2023-07-02T08:37:17;99300.22;;;30.09;31.28
77192;BME280;66172;48.526;8.078;2023-07-02T08:39:43;99296.69;;;29.12;34.06
77192;BME280;66172;48.526;8.078;2023-07-02T08:42:09;99292.91;;;30.45;31.43
77192;BME280;66172;48.526;8.078;2023-07-02T08:44:35;99287.13;;;30.87;28.80
77192;BME280;66172;48.526;8.078;2023-07-02T08:47:01;99293.22;;;31.09;30.08
77192;BME280;66172;48.526;8.078;2023-07-02T08:49:27;99294.69;;;31.19;29.67
77192;BME280;66172;48.526;8.078;2023-07-02T08:51:53;99306.28;;;30.41;29.63
77192;BME280;66172;48.526;8.078;2023-07-02T08:54:20;99306.66;;;30.43;30.44
77192;BME280;66172;48.526;8.078;2023-07-02T08:56:46;99304.34;;;30.32;30.04
77192;BME280;66172;48.526;8.078;2023-07-02T08:59:12;99300.03;;;30.22;29.72
77192;BME280;66172;48.526;8.078;2023-07-02T09:01:49;99297.19;;;31.02;29.54
77192;BME280;66172;48.526;8.078;2023-07-02T09:04:22;99304.44;;;30.47;29.26
77192;BME280;66172;48.526;8.078;2023-07-02T09:06:51;99296.91;;;29.87;30.22
77192;BME280;66172;48.526;8.078;2023-07-02T09:09:17;99312.97;;;29.87;30.84
77192;BME280;66172;48.526;8.078;2023-07-02T09:11:47;99298.88;;;31.24;28.13
77192;BME280;66172;48.526;8.078;2023-07-02T09:14:27;99297.69;;;32.03;28.04
77192;BME280;66172;48.526;8.078;2023-07-02T09:17:03;99295.31;;;32.31;27.21
77192;BME280;66172;48.526;8.078;2023-07-02T09:19:30;99303.41;;;32.24;26.85
77192;BME280;66172;48.526;8.078;2023-07-02T09:21:58;99296.78;;;31.62;27.17
77192;BME280;66172;48.526;8.078;2023-07-02T09:24:29;99295.44;;;31.05;27.19
77192;BME280;66172;48.526;8.078;2023-07-02T09:26:57;99293.38;;;30.43;28.75
77192;BME280;66172;48.526;8.078;2023-07-02T09:29:23;99295.72;;;29.61;29.47
77192;BME280;66172;48.526;8.078;2023-07-02T09:31:50;99303.41;;;31.06;28.71
77192;BME280;66172;48.526;8.078;2023-07-02T09:34:16;99297.97;;;32.20;26.17
77192;BME280;66172;48.526;8.078;2023-07-02T09:36:43;99305.94;;;30.57;28.59
77192;BME280;66172;48.526;8.078;2023-07-02T09:39:12;99305.31;;;29.78;30.03
77192;BME280;66172;48.526;8.078;2023-07-02T09:41:42;99275.75;;;30.66;28.60
77192;BME280;66172;48.526;8.078;2023-07-02T09:44:09;99275.44;;;30.88;28.73
77192;BME280;66172;48.526;8.078;2023-07-02T09:46:47;99283.72;;;32.09;26.41
77192;BME280;66172;48.526;8.078;2023-07-02T09:49:16;99277.94;;;30.15;28.96
77192;BME280;66172;48.526;8.078;2023-07-02T09:51:43;99278.66;;;28.77;30.51
77192;BME280;66172;48.526;8.078;2023-07-02T09:54:10;99277.41;;;28.96;30.49
77192;BME280;66172;48.526;8.078;2023-07-02T09:56:36;99280.84;;;28.91;28.71
77192;BME280;66172;48.526;8.078;2023-07-02T09:59:02;99276.59;;;31.35;26.87
77192;BME280;66172;48.526;8.078;2023-07-02T10:01:28;99280.72;;;32.12;25.47
77192;BME280;66172;48.526;8.078;2023-07-02T10:03:53;99269.94;;;32.26;25.20
77192;BME280;66172;48.526;8.078;2023-07-02T10:06:19;99275.47;;;32.20;25.78
77192;BME280;66172;48.526;8.078;2023-07-02T10:08:55;99271.84;;;33.15;23.70
77192;BME280;66172;48.526;8.078;2023-07-02T10:11:32;99278.28;;;33.47;22.84
77192;BME280;66172;48.526;8.078;2023-07-02T10:13:59;99281.47;;;33.86;21.67
77192;BME280;66172;48.526;8.078;2023-07-02T10:16:25;99268.13;;;33.55;22.58
77192;BME280;66172;48.526;8.078;2023-07-02T10:18:53;99268.03;;;33.70;23.82
77192;BME280;66172;48.526;8.078;2023-07-02T10:21:20;99278.94;;;34.19;22.13
77192;BME280;66172;48.526;8.078;2023-07-02T10:23:46;99261.88;;;34.50;21.06
77192;BME280;66172;48.526;8.078;2023-07-02T10:26:15;99275.47;;;33.73;21.00
77192;BME280;66172;48.526;8.078;2023-07-02T10:28:42;99267.56;;;34.56;19.69
77192;BME280;66172;48.526;8.078;2023-07-02T10:31:19;99271.03;;;33.35;20.02
77192;BME280;66172;48.526;8.078;2023-07-02T10:33:46;99279.41;;;33.55;20.66
77192;BME280;66172;48.526;8.078;2023-07-02T10:36:21;99285.16;;;34.34;19.26
77192;BME280;66172;48.526;8.078;2023-07-02T10:38:49;99269.69;;;33.87;20.56
77192;BME280;66172;48.526;8.078;2023-07-02T10:41:26;99271.03;;;33.97;20.57
77192;BME280;66172;48.526;8.078;2023-07-02T10:43:52;99267.34;;;33.80;21.34
77192;BME280;66172;48.526;8.078;2023-07-02T10:46:22;99266.28;;;32.80;22.78
77192;BME280;66172;48.526;8.078;2023-07-02T10:48:54;99267.78;;;34.10;20.17
77192;BME280;66172;48.526;8.078;2023-07-02T10:51:21;99274.25;;;33.79;21.59
77192;BME280;66172;48.526;8.078;2023-07-02T10:53:57;99266.56;;;33.80;21.67
77192;BME280;66172;48.526;8.078;2023-07-02T10:56:25;99267.03;;;32.75;21.81
77192;BME280;66172;48.526;8.078;2023-07-02T10:58:54;99261.25;;;33.93;20.21
77192;BME280;66172;48.526;8.078;2023-07-02T11:01:30;99260.53;;;32.69;22.19
77192;BME280;66172;48.526;8.078;2023-07-02T11:04:01;99257.72;;;33.15;21.34
77192;BME280;66172;48.526;8.078;2023-07-02T11:06:28;99257.03;;;32.19;22.80
77192;BME280;66172;48.526;8.078;2023-07-02T11:08:54;99254.06;;;31.93;22.68
77192;BME280;66172;48.526;8.078;2023-07-02T11:11:21;99256.34;;;32.44;22.44
77192;BME280;66172;48.526;8.078;2023-07-02T11:13:49;99239.75;;;33.64;21.75
77192;BME280;66172;48.526;8.078;2023-07-02T11:16:27;99248.53;;;32.54;21.60
77192;BME280;66172;48.526;8.078;2023-07-02T11:19:06;99252.47;;;31.57;22.42
77192;BME280;66172;48.526;8.078;2023-07-02T11:21:36;99238.50;;;31.48;22.36
77192;BME280;66172;48.526;8.078;2023-07-02T11:24:04;99242.28;;;31.60;22.48
77192;BME280;66172;48.526;8.078;2023-07-02T11:29:02;99234.66;;;32.91;20.53
77192;BME280;66172;48.526;8.078;2023-07-02T11:31:28;99229.88;;;32.56;21.58
77192;BME280;66172;48.526;8.078;2023-07-02T11:33:54;99238.59;;;32.03;22.21
77192;BME280;66172;48.526;8.078;2023-07-02T11:36:23;99232.44;;;30.82;23.55
77192;BME280;66172;48.526;8.078;2023-07-02T11:38:54;99244.34;;;31.59;22.64
77192;BME280;66172;48.526;8.078;2023-07-02T11:41:21;99235.28;;;31.11;23.21
77192;BME280;66172;48.526;8.078;2023-07-02T11:43:47;99230.75;;;31.73;22.60
77192;BME280;66172;48.526;8.078;2023-07-02T11:46:13;99224.94;;;31.96;23.06
77192;BME280;66172;48.526;8.078;2023-07-02T11:48:39;99220.28;;;31.29;23.25
77192;BME280;66172;48.526;8.078;2023-07-02T11:51:05;99220.53;;;31.46;24.19
77192;BME280;66172;48.526;8.078;2023-07-02T11:53:31;99220.00;;;31.12;24.36
77192;BME280;66172;48.526;8.078;2023-07-02T11:55:57;99204.28;;;31.35;23.47
77192;BME280;66172;48.526;8.078;2023-07-02T11:58:22;99212.09;;;30.87;24.97
77192;BME280;66172;48.526;8.078;2023-07-02T12:00:48;99220.09;;;29.43;25.94
77192;BME280;66172;48.526;8.078;2023-07-02T12:03:14;99215.47;;;30.05;26.29
77192;BME280;66172;48.526;8.078;2023-07-02T12:05:40;99221.31;;;29.93;26.58
77192;BME280;66172;48.526;8.078;2023-07-02T12:08:06;99222.72;;;30.45;26.44
77192;BME280;66172;48.526;8.078;2023-07-02T12:10:32;99218.56;;;29.74;26.53
77192;BME280;66172;48.526;8.078;2023-07-02T12:12:58;99208.69;;;30.21;26.77
77192;BME280;66172;48.526;8.078;2023-07-02T12:15:24;99220.25;;;29.81;26.81
77192;BME280;66172;48.526;8.078;2023-07-02T12:17:50;99217.63;;;30.10;25.98
77192;BME280;66172;48.526;8.078;2023-07-02T12:20:16;99212.97;;;30.79;24.88
77192;BME280;66172;48.526;8.078;2023-07-02T12:22:42;99201.94;;;30.28;26.02
77192;BME280;66172;48.526;8.078;2023-07-02T12:25:10;99206.66;;;29.98;26.47
77192;BME280;66172;48.526;8.078;2023-07-02T12:27:35;99205.88;;;29.97;26.40
77192;BME280;66172;48.526;8.078;2023-07-02T12:30:01;99208.88;;;29.85;26.82
77192;BME280;66172;48.526;8.078;2023-07-02T12:32:28;99201.81;;;29.56;27.83
77192;BME280;66172;48.526;8.078;2023-07-02T12:34:55;99204.84;;;29.44;27.73
77192;BME280;66172;48.526;8.078;2023-07-02T12:37:21;99206.41;;;29.77;27.76
77192;BME280;66172;48.526;8.078;2023-07-02T12:39:47;99213.13;;;29.71;29.04
77192;BME280;66172;48.526;8.078;2023-07-02T12:42:13;99209.69;;;29.34;28.79
77192;BME280;66172;48.526;8.078;2023-07-02T12:44:39;99211.94;;;28.85;29.52
77192;BME280;66172;48.526;8.078;2023-07-02T12:47:05;99196.81;;;29.00;30.38
77192;BME280;66172;48.526;8.078;2023-07-02T12:49:31;99207.84;;;28.58;30.08
77192;BME280;66172;48.526;8.078;2023-07-02T12:51:57;99201.94;;;28.93;29.88
77192;BME280;66172;48.526;8.078;2023-07-02T12:54:22;99195.72;;;28.61;29.92
77192;BME280;66172;48.526;8.078;2023-07-02T12:56:48;99198.53;;;28.98;29.82
77192;BME280;66172;48.526;8.078;2023-07-02T12:59:14;99200.03;;;29.17;29.48
77192;BME280;66172;48.526;8.078;2023-07-02T13:01:40;99196.97;;;29.66;28.42